createdAt,value
2024-01-08T00:00:46.653Z,97884.16
2024-01-08T00:03:14.994Z,97876.97
2024-01-08T00:05:42.231Z,97917.59
2024-01-08T00:08:09.604Z,97929.50
2024-01-08T00:10:40.051Z,97916.78
2024-01-08T00:13:07.704Z,97923.69
2024-01-08T00:15:34.621Z,97927.72
2024-01-08T00:18:02.192Z,97907.34
2024-01-08T00:20:29.325Z,97938.97
2024-01-08T00:22:56.846Z,97914.91
2024-01-08T00:25:24.305Z,97927.88
2024-01-08T00:27:52.311Z,97922.47
2024-01-08T00:30:19.972Z,97920.38
2024-01-08T00:32:48.187Z,97925.84
2024-01-08T00:35:15.752Z,97948.50
2024-01-08T00:37:43.028Z,97897.88
2024-01-08T00:40:11.176Z,97914.28
2024-01-08T00:42:39.508Z,97974.22
2024-01-08T00:45:07.511Z,97982.44
2024-01-08T00:47:34.993Z,97965.38
2024-01-08T00:50:02.934Z,97939.78
2024-01-08T00:52:30.906Z,97955.25
2024-01-08T00:55:05.905Z,97983.88
2024-01-08T00:57:34.265Z,97977.44
2024-01-08T01:00:02.347Z,97964.56
2024-01-08T01:02:29.770Z,97977.25
2024-01-08T01:04:57.033Z,97943.03
2024-01-08T01:07:24.339Z,97956.53
2024-01-08T01:09:51.322Z,97976.63
2024-01-08T01:12:18.504Z,97844.31
2024-01-08T01:14:45.335Z,97965.06
2024-01-08T01:17:12.683Z,97953.47
2024-01-08T01:19:39.767Z,97977.91
2024-01-08T01:22:06.929Z,97924.53
2024-01-08T01:24:33.938Z,97942.50
2024-01-08T01:27:01.022Z,97963.59
2024-01-08T01:29:28.213Z,97969.19
2024-01-08T01:31:55.130Z,97986.06
2024-01-08T01:34:22.208Z,97968.38
2024-01-08T01:36:49.913Z,97955.69
2024-01-08T01:39:17.192Z,97979.25
2024-01-08T01:41:44.180Z,97979.44
2024-01-08T01:44:11.293Z,97984.00
2024-01-08T01:46:43.283Z,97978.63
2024-01-08T01:49:22.574Z,97963.97
2024-01-08T01:51:51.060Z,97984.09
2024-01-08T01:54:21.617Z,97983.28
2024-01-08T01:56:54.713Z,97983.91
2024-01-08T01:59:22.373Z,97967.63
2024-01-08T02:01:49.664Z,97962.13
2024-01-08T02:04:19.007Z,97978.22
2024-01-08T02:06:46.508Z,97986.88
2024-01-08T02:09:17.759Z,97988.00
2024-01-08T02:11:45.215Z,98000.59
2024-01-08T02:14:13.770Z,97984.84
2024-01-08T02:16:41.052Z,98000.97
2024-01-08T02:19:08.136Z,97975.94
2024-01-08T02:21:35.499Z,98006.66
2024-01-08T02:24:02.592Z,98003.16
2024-01-08T02:26:29.754Z,97975.28
2024-01-08T02:28:56.655Z,98008.34
2024-01-08T02:31:23.722Z,97978.22
2024-01-08T02:33:50.690Z,98006.47
2024-01-08T02:36:17.605Z,97988.16
2024-01-08T02:38:44.650Z,97983.88
2024-01-08T02:41:11.575Z,98011.50
2024-01-08T02:43:38.433Z,98007.28
2024-01-08T02:46:05.443Z,98021.72
2024-01-08T02:48:32.449Z,98017.19
2024-01-08T02:50:59.397Z,97989.81
2024-01-08T02:53:26.561Z,98029.09
2024-01-08T02:55:53.485Z,98034.00
2024-01-08T02:58:20.465Z,98030.78
2024-01-08T03:00:47.335Z,98037.94
2024-01-08T03:03:14.303Z,98036.47
2024-01-08T03:05:41.213Z,97988.13
2024-01-08T03:08:08.099Z,98035.41
2024-01-08T03:10:34.909Z,98049.19
2024-01-08T03:13:01.751Z,98019.59
2024-01-08T03:15:28.746Z,98053.47
2024-01-08T03:17:55.752Z,98030.78
2024-01-08T03:20:24.655Z,98070.13
2024-01-08T03:22:53.334Z,98052.75
2024-01-08T03:25:20.454Z,98054.72
2024-01-08T03:27:47.355Z,98050.72
2024-01-08T03:30:14.478Z,98072.16
2024-01-08T03:32:41.832Z,98078.56
2024-01-08T03:35:09.312Z,98064.56
2024-01-08T03:37:36.994Z,98072.53
2024-01-08T03:40:06.069Z,98067.19
2024-01-08T03:42:33.417Z,98083.81
2024-01-08T03:45:00.473Z,98080.59
2024-01-08T03:47:27.996Z,98110.44
2024-01-08T03:49:56.538Z,98097.31
2024-01-08T03:52:24.362Z,98107.69
2024-01-08T03:54:51.446Z,98119.66
2024-01-08T03:57:18.452Z,98094.16
2024-01-08T03:59:47.386Z,98122.38
2024-01-08T04:02:15.543Z,98126.31
2024-01-08T04:04:46.219Z,98010.47
2024-01-08T04:07:13.449Z,98112.19
2024-01-08T04:09:42.545Z,98140.22
2024-01-08T04:12:09.856Z,98119.31
2024-01-08T04:14:37.822Z,98108.78
2024-01-08T04:17:08.304Z,98148.69
2024-01-08T04:19:35.229Z,98135.38
2024-01-08T04:22:02.225Z,98156.56
2024-01-08T04:24:29.050Z,98117.19
2024-01-08T04:26:55.954Z,98132.31
2024-01-08T04:29:22.983Z,98160.28
2024-01-08T04:31:50.095Z,98172.66
2024-01-08T04:34:17.402Z,98171.41
2024-01-08T04:36:44.819Z,98188.25
2024-01-08T04:39:12.279Z,98172.59
2024-01-08T04:41:41.223Z,98141.47
2024-01-08T04:44:09.293Z,98178.41
2024-01-08T04:46:36.904Z,98180.47
2024-01-08T04:49:05.295Z,98200.25
2024-01-08T04:51:32.985Z,98139.91
2024-01-08T04:53:59.905Z,98192.59
2024-01-08T04:56:29.377Z,98215.59
2024-01-08T04:58:57.242Z,98216.84
2024-01-08T05:01:24.456Z,98223.47
2024-01-08T05:03:51.702Z,98219.19
2024-01-08T05:06:19.524Z,98227.28
2024-01-08T05:08:46.746Z,98224.63
2024-01-08T05:11:14.714Z,98201.28
2024-01-08T05:13:42.416Z,98205.66
2024-01-08T05:16:10.155Z,98220.41
2024-01-08T05:18:38.102Z,98209.91
2024-01-08T05:21:06.297Z,98225.91
2024-01-08T05:23:34.476Z,98241.97
2024-01-08T05:26:02.027Z,98249.13
2024-01-08T05:28:30.287Z,98249.19
2024-01-08T05:30:57.985Z,98266.75
2024-01-08T05:33:26.625Z,98268.09
2024-01-08T05:35:53.800Z,98264.38
2024-01-08T05:38:21.252Z,98236.88
2024-01-08T05:40:48.432Z,98269.69
2024-01-08T05:43:15.326Z,98253.88
2024-01-08T05:45:42.619Z,98268.66
2024-01-08T05:48:13.245Z,98288.31
2024-01-08T05:50:41.033Z,98305.06
2024-01-08T05:53:08.304Z,98303.97
2024-01-08T05:55:35.284Z,98285.19
2024-01-08T05:58:02.227Z,98305.94
2024-01-08T06:00:29.204Z,98309.00
2024-01-08T06:02:56.033Z,98289.56
2024-01-08T06:05:23.102Z,98293.38
2024-01-08T06:07:50.297Z,98301.00
2024-01-08T06:10:17.656Z,98314.06
2024-01-08T06:12:47.385Z,98318.81
2024-01-08T06:15:14.399Z,98324.31
2024-01-08T06:17:45.029Z,98305.16
2024-01-08T06:20:13.841Z,98310.63
2024-01-08T06:22:40.935Z,98301.00
2024-01-08T06:25:08.384Z,98358.47
2024-01-08T06:27:35.326Z,98348.06
2024-01-08T06:30:02.240Z,98347.03
2024-01-08T06:32:29.253Z,98332.06
2024-01-08T06:34:56.320Z,98365.84
2024-01-08T06:37:23.412Z,98370.94
2024-01-08T06:39:50.230Z,98317.81
2024-01-08T06:42:17.143Z,98373.44
2024-01-08T06:44:45.172Z,98391.25
2024-01-08T06:47:12.115Z,98362.06
2024-01-08T06:49:38.957Z,98399.66
2024-01-08T06:52:06.374Z,98374.53
2024-01-08T06:54:33.220Z,98405.84
2024-01-08T06:57:00.215Z,98273.88
2024-01-08T06:59:27.357Z,98416.25
2024-01-08T07:01:54.626Z,98392.88
2024-01-08T07:04:21.683Z,98421.31
2024-01-08T07:06:49.818Z,98405.22
2024-01-08T07:09:16.796Z,98432.78
2024-01-08T07:11:43.665Z,98430.66
2024-01-08T07:14:11.223Z,98403.66
2024-01-08T07:16:38.265Z,98449.69
2024-01-08T07:19:05.448Z,98421.31
2024-01-08T07:21:32.503Z,98410.75
2024-01-08T07:24:00.120Z,98467.53
2024-01-08T07:26:27.377Z,98460.47
2024-01-08T07:28:54.517Z,98433.50
2024-01-08T07:31:21.630Z,98466.53
2024-01-08T07:33:48.651Z,98483.56
2024-01-08T07:36:15.586Z,98485.44
2024-01-08T07:38:42.913Z,98470.34
2024-01-08T07:41:10.295Z,98511.53
2024-01-08T07:43:38.972Z,98526.22
2024-01-08T07:46:06.425Z,98506.22
2024-01-08T07:48:33.736Z,98525.97
2024-01-08T07:51:01.785Z,98531.38
2024-01-08T07:53:28.854Z,98495.22
2024-01-08T07:55:55.881Z,98540.13
2024-01-08T07:58:28.531Z,98531.72
2024-01-08T08:01:03.549Z,98552.88
2024-01-08T08:03:31.040Z,98555.63
2024-01-08T08:05:59.735Z,98515.59
2024-01-08T08:08:27.493Z,98545.06
2024-01-08T08:10:54.839Z,98529.38
2024-01-08T08:13:21.873Z,98571.03
2024-01-08T08:15:49.338Z,98531.53
2024-01-08T08:18:16.563Z,98560.47
2024-01-08T08:20:44.413Z,98524.25
2024-01-08T08:23:13.481Z,98580.84
2024-01-08T08:25:42.039Z,98577.59
2024-01-08T08:28:09.400Z,98578.41
2024-01-08T08:30:36.988Z,98545.91
2024-01-08T08:33:04.890Z,98550.78
2024-01-08T08:35:32.186Z,98606.63
2024-01-08T08:38:00.023Z,98607.16
2024-01-08T08:40:27.443Z,98605.53
2024-01-08T08:42:56.209Z,98613.66
2024-01-08T08:45:23.161Z,98608.50
2024-01-08T08:47:52.127Z,98626.13
2024-01-08T08:50:19.539Z,98595.22
2024-01-08T08:52:47.502Z,98618.81
2024-01-08T08:55:15.267Z,98633.97
2024-01-08T08:57:42.665Z,98642.66
2024-01-08T09:00:10.720Z,98641.28
2024-01-08T09:02:38.556Z,98642.38
2024-01-08T09:05:07.150Z,98642.38
2024-01-08T09:07:34.521Z,98646.19
2024-01-08T09:10:02.518Z,98655.66
2024-01-08T09:12:29.595Z,98639.94
2024-01-08T09:14:57.037Z,98647.53
2024-01-08T09:17:24.552Z,98656.47
2024-01-08T09:19:56.860Z,98662.16
2024-01-08T09:22:25.631Z,98677.63
2024-01-08T09:24:52.756Z,98681.13
2024-01-08T09:27:19.792Z,98639.66
2024-01-08T09:29:46.852Z,98681.41
2024-01-08T09:32:14.064Z,98669.47
2024-01-08T09:34:40.984Z,98690.63
2024-01-08T09:37:07.916Z,98685.44
2024-01-08T09:39:35.427Z,98657.47
2024-01-08T09:42:05.213Z,98703.34
2024-01-08T09:44:50.031Z,98699.22
2024-01-08T09:47:18.097Z,98710.34
2024-01-08T09:49:46.990Z,98720.88
2024-01-08T09:52:15.304Z,98713.81
2024-01-08T09:54:43.937Z,98717.06
2024-01-08T09:57:11.614Z,98680.50
2024-01-08T09:59:38.906Z,98706.25
2024-01-08T10:02:15.341Z,98701.38
2024-01-08T10:04:42.363Z,98706.28
2024-01-08T10:07:13.836Z,98720.66
2024-01-08T10:09:41.078Z,98719.53
2024-01-08T10:12:09.601Z,98721.72
2024-01-08T10:14:37.064Z,98710.03
2024-01-08T10:17:04.300Z,98737.16
2024-01-08T10:19:32.261Z,98741.47
2024-01-08T10:22:13.803Z,98700.16
2024-01-08T10:24:41.624Z,98741.41
2024-01-08T10:27:09.628Z,98731.88
2024-01-08T10:29:37.526Z,98749.75
2024-01-08T10:32:06.443Z,98736.78
2024-01-08T10:34:35.423Z,98757.09
2024-01-08T10:37:02.485Z,98747.91
2024-01-08T10:39:43.292Z,98750.59
2024-01-08T10:42:18.773Z,98729.97
2024-01-08T10:44:46.261Z,98739.38
2024-01-08T10:47:20.714Z,98755.41
2024-01-08T10:49:58.013Z,98764.94
2024-01-08T10:52:27.050Z,98763.50
2024-01-08T10:54:59.010Z,98759.16
2024-01-08T10:57:42.152Z,98730.03
2024-01-08T11:00:14.401Z,98737.69
2024-01-08T11:02:43.567Z,98753.38
2024-01-08T11:05:11.353Z,98785.38
2024-01-08T11:07:42.521Z,98792.72
2024-01-08T11:10:13.207Z,98778.28
2024-01-08T11:12:44.078Z,98777.50
2024-01-08T11:15:16.319Z,98793.25
2024-01-08T11:17:55.017Z,98772.06
2024-01-08T11:20:42.686Z,98801.88
2024-01-08T11:23:28.658Z,98811.19
2024-01-08T11:25:55.652Z,98767.59
2024-01-08T11:28:22.702Z,98826.28
2024-01-08T11:31:17.124Z,98785.53
2024-01-08T11:34:11.997Z,98826.78
2024-01-08T11:37:19.999Z,98836.22
2024-01-08T11:39:50.518Z,98821.81
2024-01-08T11:42:19.785Z,98853.13
2024-01-08T11:44:46.908Z,98840.09
2024-01-08T11:47:14.149Z,98794.31
2024-01-08T11:49:41.113Z,98813.03
2024-01-08T11:52:10.652Z,98825.03
2024-01-08T11:54:37.499Z,98854.09
2024-01-08T11:57:05.015Z,98774.50
2024-01-08T11:59:36.915Z,98830.03
2024-01-08T12:02:21.039Z,98841.47
2024-01-08T12:04:59.209Z,98848.50
2024-01-08T12:07:28.421Z,98858.31
2024-01-08T12:09:56.852Z,98872.16
2024-01-08T12:12:26.798Z,98865.97
2024-01-08T12:14:54.325Z,98877.19
2024-01-08T12:17:22.080Z,98877.19
2024-01-08T12:19:53.906Z,98890.13
2024-01-08T12:22:22.319Z,98849.16
2024-01-08T12:24:54.053Z,98874.41
2024-01-08T12:27:22.432Z,98882.53
2024-01-08T12:29:51.683Z,98889.91
2024-01-08T12:32:22.057Z,98892.91
2024-01-08T12:34:49.687Z,98911.19
2024-01-08T12:37:18.794Z,98885.28
2024-01-08T12:39:45.900Z,98877.34
2024-01-08T12:42:19.955Z,98897.69
2024-01-08T12:44:51.537Z,98850.34
2024-01-08T12:47:18.617Z,98886.56
2024-01-08T12:49:46.170Z,98921.97
2024-01-08T12:52:13.984Z,98906.13
2024-01-08T12:54:43.231Z,98923.31
2024-01-08T12:57:12.631Z,98951.19
2024-01-08T12:59:53.551Z,98949.59
2024-01-08T13:02:22.573Z,98958.81
2024-01-08T13:04:53.922Z,98951.81
2024-01-08T13:07:21.954Z,98943.88
2024-01-08T13:12:16.577Z,98943.81
2024-01-08T13:14:44.015Z,98976.91
2024-01-08T13:17:13.595Z,98944.13
2024-01-08T13:19:41.216Z,98959.59
2024-01-08T13:22:09.087Z,99000.19
2024-01-08T13:24:36.330Z,98939.41
2024-01-08T13:27:03.410Z,98976.63
2024-01-08T13:29:30.340Z,98997.16
2024-01-08T13:31:57.418Z,98987.56
2024-01-08T13:34:24.666Z,98955.53
2024-01-08T13:36:51.528Z,98989.97
2024-01-08T13:39:18.501Z,99009.63
2024-01-08T13:41:46.294Z,99009.34
2024-01-08T13:44:16.424Z,99028.59
2024-01-08T13:46:43.468Z,99005.31
2024-01-08T13:49:10.467Z,99029.91
2024-01-08T13:51:37.447Z,99023.00
2024-01-08T13:54:06.628Z,98986.22
2024-01-08T13:56:35.274Z,99042.88
2024-01-08T13:59:02.567Z,99046.94
2024-01-08T14:01:29.606Z,99012.88
2024-01-08T14:03:56.739Z,99029.78
2024-01-08T14:06:23.950Z,99019.78
2024-01-08T14:08:51.341Z,98978.53
2024-01-08T14:11:18.281Z,98928.00
2024-01-08T14:13:45.313Z,99049.09
2024-01-08T14:16:13.181Z,99057.38
2024-01-08T14:18:41.374Z,99039.06
2024-01-08T14:21:08.721Z,99020.34
2024-01-08T14:23:35.888Z,99065.53
2024-01-08T14:26:05.313Z,99071.91
2024-01-08T14:28:32.525Z,99075.41
2024-01-08T14:30:59.536Z,99060.56
2024-01-08T14:33:27.319Z,99087.63
2024-01-08T14:35:54.672Z,99087.16
2024-01-08T14:38:22.040Z,99102.22
2024-01-08T14:40:50.228Z,99096.97
2024-01-08T14:43:17.741Z,99103.06
2024-01-08T14:45:45.556Z,99088.28
2024-01-08T14:48:13.507Z,99100.69
2024-01-08T14:50:40.666Z,99115.00
2024-01-08T14:53:08.043Z,99107.72
2024-01-08T14:55:34.917Z,99088.84
2024-01-08T14:58:01.910Z,99115.84
2024-01-08T15:00:29.124Z,99135.00
2024-01-08T15:02:56.530Z,99121.91
2024-01-08T15:05:26.429Z,99131.41
2024-01-08T15:07:54.772Z,99139.94
2024-01-08T15:10:22.200Z,99108.41
2024-01-08T15:12:49.140Z,99125.50
2024-01-08T15:15:15.951Z,99136.50
2024-01-08T15:17:43.108Z,99132.00
2024-01-08T15:20:10.628Z,99159.50
2024-01-08T15:22:37.591Z,99165.56
2024-01-08T15:25:06.328Z,99163.09
2024-01-08T15:27:33.635Z,99162.53
2024-01-08T15:30:00.646Z,99173.97
2024-01-08T15:32:28.008Z,99148.50
2024-01-08T15:34:54.922Z,99186.75
2024-01-08T15:37:21.980Z,99192.63
2024-01-08T15:39:48.840Z,99190.91
2024-01-08T15:42:16.942Z,99202.84
2024-01-08T15:44:45.351Z,99184.25
2024-01-08T15:47:12.598Z,99153.13
2024-01-08T15:49:39.602Z,99213.91
2024-01-08T15:52:06.949Z,99223.06
2024-01-08T15:54:35.888Z,99217.84
2024-01-08T15:57:02.722Z,99218.25
2024-01-08T15:59:29.942Z,99200.47
2024-01-08T16:01:57.157Z,99232.47
2024-01-08T16:04:24.229Z,99237.44
2024-01-08T16:06:51.246Z,99224.69
2024-01-08T16:09:18.598Z,99248.97
2024-01-08T16:11:45.532Z,99229.31
2024-01-08T16:14:12.806Z,99128.88
2024-01-08T16:16:39.918Z,99247.59
2024-01-08T16:19:07.220Z,99235.97
2024-01-08T16:21:34.411Z,99249.88
2024-01-08T16:24:09.628Z,99241.00
2024-01-08T16:26:41.135Z,99244.28
2024-01-08T16:29:08.859Z,99230.13
2024-01-08T16:31:37.173Z,99231.56
2024-01-08T16:34:04.921Z,99272.22
2024-01-08T16:36:31.964Z,99272.97
2024-01-08T16:38:59.689Z,99269.56
2024-01-08T16:41:27.214Z,99281.72
2024-01-08T16:43:55.592Z,99285.31
2024-01-08T16:46:24.149Z,99275.38
2024-01-08T16:48:51.262Z,99306.81
2024-01-08T16:51:18.292Z,99311.94
2024-01-08T16:53:45.391Z,99308.53
2024-01-08T16:59:15.879Z,99328.75
2024-01-08T17:01:45.216Z,99325.13
2024-01-08T17:04:13.509Z,99325.94
2024-01-08T17:15:46.988Z,99348.59
2024-01-08T17:18:14.413Z,99339.66
2024-01-08T17:20:41.423Z,99353.38
2024-01-08T17:23:08.873Z,99329.56
2024-01-08T17:25:35.998Z,99347.75
2024-01-08T17:56:11.676Z,99334.94
2024-01-08T17:58:38.979Z,99414.75
2024-01-08T18:01:06.503Z,99421.31
2024-01-08T18:03:33.771Z,99420.38
2024-01-08T18:06:04.448Z,99406.63
2024-01-08T18:08:34.702Z,99421.78
2024-01-08T19:05:48.909Z,99495.69
2024-01-08T19:08:18.699Z,99512.22
2024-01-08T19:10:54.835Z,99511.16
2024-01-08T19:13:22.309Z,99490.53
2024-01-08T19:15:49.306Z,99519.19
2024-01-08T19:18:17.173Z,99510.59
2024-01-08T19:20:44.810Z,99513.81
2024-01-08T19:23:13.244Z,99517.91
2024-01-08T19:25:55.583Z,99529.53
2024-01-08T19:28:34.963Z,99532.19
2024-01-08T19:31:26.383Z,99542.22
2024-01-08T19:34:18.205Z,99534.06
2024-01-08T19:36:49.215Z,99541.34
2024-01-08T19:39:16.881Z,99557.41
2024-01-08T19:41:44.657Z,99556.72
2024-01-08T19:44:11.953Z,99558.16
2024-01-08T19:46:39.177Z,99572.88
2024-01-08T19:49:17.167Z,99573.31
2024-01-08T19:56:15.391Z,99558.50
2024-01-08T19:59:12.357Z,99585.38
2024-01-08T20:01:40.296Z,99568.16
2024-01-08T20:04:07.178Z,99580.72
2024-01-08T20:06:52.833Z,99578.31
2024-01-08T20:10:02.261Z,99601.41
2024-01-08T20:12:51.195Z,99584.53
2024-01-08T20:15:24.024Z,99604.16
2024-01-08T20:17:51.144Z,99578.25
2024-01-08T20:23:21.474Z,99603.75
2024-01-08T20:28:51.695Z,99618.28
2024-01-08T20:31:18.834Z,99630.91
2024-01-08T20:36:57.945Z,99630.66
2024-01-08T20:42:14.120Z,99592.94
2024-01-08T20:44:42.262Z,99623.94
2024-01-08T20:47:10.085Z,99615.06
2024-01-08T21:24:21.369Z,99704.03
2024-01-08T21:26:56.045Z,99702.97
2024-01-08T21:32:47.395Z,99713.81
2024-01-08T21:35:20.261Z,99657.56
2024-01-08T21:37:49.649Z,99696.94
2024-01-08T21:40:16.763Z,99734.53
2024-01-08T21:45:32.640Z,99718.88
2024-01-08T21:57:07.878Z,99712.88
2024-01-08T21:59:34.934Z,99736.19
2024-01-08T22:14:06.707Z,99722.56
2024-01-08T22:45:09.056Z,99788.16
2024-01-08T22:47:36.370Z,99767.59
2024-01-08T22:50:04.337Z,99801.47
2024-01-08T22:52:31.489Z,99771.81
2024-01-08T22:54:58.745Z,99773.47
2024-01-08T22:57:25.821Z,99797.25
2024-01-08T22:59:53.127Z,99793.16
2024-01-08T23:02:23.043Z,99787.16
2024-01-08T23:05:45.788Z,99818.34
2024-01-08T23:08:13.199Z,99823.53
2024-01-08T23:13:49.354Z,99819.81
2024-01-08T23:16:16.658Z,99825.19
2024-01-08T23:19:24.928Z,99802.88
2024-01-08T23:22:17.588Z,99809.69
2024-01-08T23:25:05.655Z,99840.69
2024-01-08T23:27:32.748Z,99844.00
2024-01-08T23:30:01.694Z,99829.31
2024-01-08T23:32:30.443Z,99839.66
2024-01-08T23:34:57.585Z,99822.94
2024-01-08T23:40:09.857Z,99860.34
2024-01-08T23:42:40.776Z,99857.44
2024-01-08T23:45:08.206Z,99843.81
2024-01-08T23:47:35.242Z,99868.41
2024-01-08T23:50:02.251Z,99846.50
2024-01-08T23:52:33.339Z,99870.88
2024-01-08T23:55:00.731Z,99848.34
2024-01-08T23:57:27.959Z,99869.44
2024-01-08T23:59:55.045Z,99828.91
